createdAt,value
2023-03-29T00:01:00.577Z,82.26
2023-03-29T00:03:05.416Z,82.51
2023-03-29T00:05:09.979Z,82.75
2023-03-29T00:07:14.077Z,82.79
2023-03-29T00:09:18.249Z,83.02
2023-03-29T00:11:22.373Z,82.69
2023-03-29T00:13:25.113Z,82.23
2023-03-29T00:15:27.968Z,83.19
2023-03-29T00:17:31.010Z,83.25
2023-03-29T00:19:36.708Z,83.48
2023-03-29T00:21:39.570Z,83.22
2023-03-29T00:23:42.456Z,84.06
2023-03-29T00:25:46.758Z,84.23
2023-03-29T00:27:49.502Z,83.89
2023-03-29T00:29:52.215Z,84.53
2023-03-29T00:31:55.968Z,83.82
2023-03-29T00:33:58.777Z,83.69
2023-03-29T00:36:04.358Z,84.73
2023-03-29T00:38:07.871Z,83.09
2023-03-29T00:40:12.719Z,83.22
2023-03-29T00:42:17.983Z,84.18
2023-03-29T00:44:56.947Z,83.07
2023-03-29T00:46:59.878Z,83.08
2023-03-29T00:49:05.936Z,84.19
2023-03-29T00:51:13.183Z,84.58
2023-03-29T00:53:21.439Z,84.14
2023-03-29T00:55:27.941Z,84.02
2023-03-29T00:57:32.478Z,83.68
2023-03-29T00:59:36.235Z,83.71
2023-03-29T01:01:43.233Z,84.63
2023-03-29T01:03:54.043Z,84.86
2023-03-29T01:06:00.318Z,85.46
2023-03-29T01:08:07.374Z,85.62
2023-03-29T01:10:15.580Z,86.95
2023-03-29T01:12:21.756Z,87.83
2023-03-29T01:14:30.824Z,88.53
2023-03-29T01:16:38.213Z,88.57
2023-03-29T01:18:41.917Z,88.39
2023-03-29T01:21:04.882Z,88.22
2023-03-29T01:23:27.205Z,87.68
2023-03-29T01:25:35.838Z,88.03
2023-03-29T01:27:50.321Z,88.92
2023-03-29T01:29:57.771Z,90.63
2023-03-29T01:32:05.638Z,89.87
2023-03-29T01:34:13.724Z,90.76
2023-03-29T01:36:22.080Z,90.05
2023-03-29T01:38:28.829Z,89.07
2023-03-29T01:40:33.659Z,89.62
2023-03-29T01:42:47.866Z,89.07
2023-03-29T01:44:57.741Z,88.78
2023-03-29T01:47:09.586Z,88.35
2023-03-29T01:49:17.575Z,88.78
2023-03-29T01:51:26.600Z,88.58
2023-03-29T01:53:35.528Z,88.13
2023-03-29T01:55:43.897Z,87.94
2023-03-29T01:57:50.076Z,87.01
2023-03-29T01:59:57.572Z,87.03
2023-03-29T02:02:03.865Z,87.70
2023-03-29T02:04:11.300Z,87.42
2023-03-29T02:06:19.728Z,86.93
2023-03-29T02:08:24.113Z,86.92
2023-03-29T02:10:27.867Z,85.38
2023-03-29T02:12:30.748Z,85.45
2023-03-29T02:14:35.569Z,85.69
2023-03-29T02:16:39.233Z,85.18
2023-03-29T02:18:45.126Z,85.62
2023-03-29T02:20:50.788Z,85.38
2023-03-29T02:23:03.173Z,85.15
2023-03-29T02:25:09.346Z,84.54
2023-03-29T02:27:13.805Z,84.90
2023-03-29T02:29:17.413Z,85.09
2023-03-29T02:31:26.078Z,85.95
2023-03-29T02:33:34.425Z,85.72
2023-03-29T02:35:42.413Z,85.86
2023-03-29T02:37:49.523Z,86.39
2023-03-29T02:39:53.781Z,86.23
2023-03-29T02:41:57.938Z,86.52
2023-03-29T02:44:04.062Z,85.72
2023-03-29T02:46:08.792Z,86.14
2023-03-29T02:48:22.104Z,85.26
2023-03-29T02:50:27.107Z,85.16
2023-03-29T02:52:37.112Z,85.07
2023-03-29T02:54:43.190Z,85.25
2023-03-29T02:56:48.135Z,85.09
2023-03-29T02:58:51.109Z,85.08
2023-03-29T03:00:54.571Z,85.04
2023-03-29T03:02:58.755Z,85.78
2023-03-29T03:05:05.670Z,85.97
2023-03-29T03:07:08.745Z,86.49
2023-03-29T03:09:11.929Z,86.57
2023-03-29T03:11:17.456Z,86.90
2023-03-29T03:13:20.207Z,86.94
2023-03-29T03:15:23.094Z,87.20
2023-03-29T03:17:25.927Z,87.14
2023-03-29T03:19:28.685Z,87.96
2023-03-29T03:21:33.594Z,88.79
2023-03-29T03:23:37.086Z,88.46
2023-03-29T03:25:39.935Z,88.84
2023-03-29T03:27:42.920Z,89.75
2023-03-29T03:29:47.249Z,90.52
2023-03-29T03:32:13.534Z,90.07
2023-03-29T03:34:35.630Z,90.52
2023-03-29T03:36:40.222Z,89.69
2023-03-29T03:38:44.066Z,90.09
2023-03-29T03:40:54.434Z,90.82
2023-03-29T03:42:57.302Z,91.09
2023-03-29T03:45:00.449Z,91.82
2023-03-29T03:47:48.616Z,91.75
2023-03-29T03:50:20.592Z,92.63
2023-03-29T03:52:25.265Z,92.84
2023-03-29T03:54:28.523Z,92.74
2023-03-29T03:56:54.566Z,93.73
2023-03-29T03:59:11.589Z,94.52
2023-03-29T04:01:29.757Z,95.18
2023-03-29T04:03:45.935Z,94.43
2023-03-29T04:05:51.771Z,92.82
2023-03-29T04:07:57.654Z,91.59
2023-03-29T04:10:19.119Z,91.21
2023-03-29T04:12:27.003Z,90.19
2023-03-29T04:14:32.115Z,90.60
2023-03-29T04:16:43.981Z,89.91
2023-03-29T04:19:06.697Z,88.86
2023-03-29T04:21:09.583Z,89.31
2023-03-29T04:23:14.395Z,88.69
2023-03-29T04:25:21.456Z,89.12
2023-03-29T04:27:24.178Z,87.73
2023-03-29T04:29:27.180Z,87.44
2023-03-29T04:31:47.780Z,87.90
2023-03-29T04:34:11.001Z,88.61
2023-03-29T04:36:13.975Z,89.40
2023-03-29T04:38:23.009Z,90.33
2023-03-29T04:40:28.856Z,89.73
2023-03-29T04:42:54.404Z,90.18
2023-03-29T04:44:57.347Z,90.08
2023-03-29T04:47:14.852Z,90.16
2023-03-29T04:49:40.852Z,88.85
2023-03-29T04:51:48.689Z,88.59
2023-03-29T04:53:56.761Z,88.23
2023-03-29T04:55:59.724Z,88.10
2023-03-29T04:58:22.956Z,89.37
2023-03-29T05:00:28.537Z,89.63
2023-03-29T05:02:49.671Z,89.32
2023-03-29T05:04:52.625Z,89.25
2023-03-29T05:06:55.452Z,89.87
2023-03-29T05:08:59.477Z,100.00
2023-03-29T05:11:08.257Z,92.87
2023-03-29T05:13:11.343Z,96.75
2023-03-29T05:15:16.506Z,91.35
2023-03-29T05:17:19.187Z,92.11
2023-03-29T05:19:23.020Z,87.05
2023-03-29T05:21:28.190Z,85.07
2023-03-29T05:23:34.197Z,85.04
2023-03-29T05:25:44.515Z,87.31
2023-03-29T05:27:47.683Z,85.89
2023-03-29T05:29:50.355Z,86.22
2023-03-29T05:32:25.066Z,87.05
2023-03-29T05:34:27.991Z,86.63
2023-03-29T05:36:34.740Z,86.31
2023-03-29T05:38:38.171Z,85.30
2023-03-29T05:40:41.739Z,85.04
2023-03-29T05:42:59.523Z,84.24
2023-03-29T05:45:02.287Z,85.32
2023-03-29T05:47:04.958Z,85.20
2023-03-29T05:49:09.189Z,85.13
2023-03-29T05:51:29.362Z,85.30
2023-03-29T05:53:32.196Z,85.47
2023-03-29T05:55:35.622Z,86.08
2023-03-29T05:57:38.782Z,86.30
2023-03-29T05:59:43.282Z,85.97
2023-03-29T06:01:47.857Z,85.51
2023-03-29T06:03:54.162Z,86.11
2023-03-29T06:06:04.219Z,87.38
2023-03-29T06:08:08.843Z,87.16
2023-03-29T06:10:21.477Z,87.24
2023-03-29T06:12:30.043Z,89.79
2023-03-29T06:14:35.735Z,91.62
2023-03-29T06:16:56.543Z,93.74
2023-03-29T06:18:59.379Z,94.67
2023-03-29T06:21:03.793Z,91.41
2023-03-29T06:23:07.962Z,88.48
2023-03-29T06:25:12.128Z,87.68
2023-03-29T06:27:15.804Z,88.14
2023-03-29T06:29:19.695Z,88.14
2023-03-29T06:31:23.599Z,88.95
2023-03-29T06:33:30.556Z,88.57
2023-03-29T06:35:42.933Z,89.26
2023-03-29T06:37:50.389Z,89.18
2023-03-29T06:40:07.334Z,89.10
2023-03-29T06:42:21.623Z,89.55
2023-03-29T06:44:48.008Z,89.33
2023-03-29T06:46:55.550Z,89.28
2023-03-29T06:49:01.008Z,89.53
2023-03-29T06:51:12.657Z,89.21
2023-03-29T06:53:16.958Z,90.78
2023-03-29T06:55:24.863Z,90.71
2023-03-29T06:57:28.592Z,90.09
2023-03-29T06:59:31.721Z,89.36
2023-03-29T07:01:45.065Z,89.76
2023-03-29T07:03:58.586Z,89.42
2023-03-29T07:06:11.644Z,88.86
2023-03-29T07:08:17.227Z,86.87
2023-03-29T07:10:44.209Z,87.30
2023-03-29T07:13:07.034Z,86.10
2023-03-29T07:15:11.376Z,85.73
2023-03-29T07:17:32.814Z,85.19
2023-03-29T07:19:35.860Z,84.97
2023-03-29T07:21:51.496Z,85.69
2023-03-29T07:23:54.671Z,86.63
2023-03-29T07:25:57.427Z,86.14
2023-03-29T07:28:01.676Z,85.79
2023-03-29T07:30:09.807Z,85.84
2023-03-29T07:32:13.081Z,86.22
2023-03-29T07:34:18.520Z,84.99
2023-03-29T07:36:21.333Z,85.90
2023-03-29T07:38:25.606Z,85.63
2023-03-29T07:40:37.640Z,85.41
2023-03-29T07:43:01.140Z,84.22
2023-03-29T07:45:09.171Z,83.95
2023-03-29T07:47:23.094Z,80.65
2023-03-29T07:49:26.418Z,79.98
2023-03-29T07:51:29.492Z,80.19
2023-03-29T07:53:44.740Z,80.68
2023-03-29T07:56:07.041Z,80.82
2023-03-29T07:58:22.664Z,79.49
2023-03-29T08:00:25.767Z,79.59
2023-03-29T08:02:50.669Z,79.56
2023-03-29T08:04:54.875Z,78.39
2023-03-29T08:07:21.039Z,78.02
2023-03-29T08:09:43.209Z,78.66
2023-03-29T08:11:46.628Z,78.65
2023-03-29T08:13:58.961Z,78.89
2023-03-29T08:16:01.994Z,76.35
2023-03-29T08:18:10.022Z,74.80
2023-03-29T08:20:15.597Z,75.31
2023-03-29T08:22:20.852Z,74.54
2023-03-29T08:24:45.193Z,75.02
2023-03-29T08:26:48.798Z,75.70
2023-03-29T08:28:54.631Z,72.56
2023-03-29T08:30:59.981Z,71.49
2023-03-29T08:33:03.306Z,70.93
2023-03-29T08:35:08.740Z,68.74
2023-03-29T08:37:20.678Z,68.38
2023-03-29T08:39:25.329Z,68.52
2023-03-29T08:41:59.164Z,65.33
2023-03-29T08:44:21.540Z,66.41
2023-03-29T08:46:42.231Z,65.99
2023-03-29T08:49:02.278Z,63.22
2023-03-29T08:51:11.772Z,62.26
2023-03-29T08:53:19.476Z,63.21
2023-03-29T08:55:41.630Z,62.74
2023-03-29T08:58:08.350Z,62.74
2023-03-29T09:00:21.569Z,64.10
2023-03-29T09:02:27.099Z,63.98
2023-03-29T09:04:37.684Z,63.06
2023-03-29T09:06:50.359Z,63.17
2023-03-29T09:08:57.932Z,61.86
2023-03-29T09:11:18.827Z,61.80
2023-03-29T09:13:35.913Z,61.32
2023-03-29T09:15:48.461Z,60.42
2023-03-29T09:18:14.104Z,58.90
2023-03-29T09:20:31.520Z,59.40
2023-03-29T09:22:41.364Z,59.81
2023-03-29T09:24:59.691Z,59.22
2023-03-29T09:27:10.271Z,59.09
2023-03-29T09:29:32.758Z,58.42
2023-03-29T09:31:40.070Z,58.68
2023-03-29T09:33:47.752Z,58.80
2023-03-29T09:35:57.490Z,58.20
2023-03-29T09:38:00.791Z,57.21
2023-03-29T09:40:11.283Z,57.68
2023-03-29T09:42:41.574Z,56.64
2023-03-29T09:44:49.918Z,56.08
2023-03-29T09:47:02.162Z,55.34
2023-03-29T09:49:17.629Z,54.19
2023-03-29T09:51:23.638Z,55.41
2023-03-29T09:53:26.455Z,52.93
2023-03-29T09:55:50.323Z,52.76
2023-03-29T09:58:12.290Z,52.43
2023-03-29T10:00:20.698Z,51.57
2023-03-29T10:02:23.609Z,51.66
2023-03-29T10:04:27.376Z,51.63
2023-03-29T10:06:36.701Z,50.29
2023-03-29T10:08:42.566Z,50.82
2023-03-29T10:10:45.551Z,50.68
2023-03-29T10:12:51.698Z,51.54
2023-03-29T10:14:55.291Z,52.07
2023-03-29T10:16:59.554Z,51.48
2023-03-29T10:19:17.372Z,49.84
2023-03-29T10:21:21.264Z,46.30
2023-03-29T10:23:24.002Z,46.87
2023-03-29T10:25:29.729Z,44.14
2023-03-29T10:27:34.644Z,44.05
2023-03-29T10:29:40.075Z,44.49
2023-03-29T10:31:43.340Z,46.12
2023-03-29T10:33:53.205Z,46.26
2023-03-29T10:35:57.635Z,45.59
2023-03-29T10:38:04.134Z,45.64
2023-03-29T10:40:08.478Z,46.53
2023-03-29T10:42:16.545Z,45.96
2023-03-29T10:44:33.164Z,45.63
2023-03-29T10:46:43.976Z,43.96
2023-03-29T10:48:50.219Z,43.74
2023-03-29T10:50:53.335Z,43.00
2023-03-29T10:52:56.153Z,43.55
2023-03-29T10:55:00.025Z,43.23
2023-03-29T10:57:06.966Z,43.10
2023-03-29T10:59:28.084Z,43.75
2023-03-29T11:01:41.351Z,42.07
2023-03-29T11:04:07.868Z,42.26
2023-03-29T11:06:20.892Z,42.26
2023-03-29T11:08:37.664Z,42.71
2023-03-29T11:10:50.600Z,43.03
2023-03-29T11:12:59.579Z,43.18
2023-03-29T11:15:17.053Z,43.32
2023-03-29T11:17:33.397Z,43.87
2023-03-29T11:19:52.771Z,43.17
2023-03-29T11:22:05.145Z,43.27
2023-03-29T11:24:29.288Z,44.53
2023-03-29T11:26:41.905Z,45.82
2023-03-29T11:28:52.917Z,45.90
2023-03-29T11:31:04.966Z,43.96
2023-03-29T11:33:20.804Z,43.02
2023-03-29T11:35:38.191Z,44.03
2023-03-29T11:37:51.522Z,43.52
2023-03-29T11:40:07.220Z,44.48
2023-03-29T11:42:18.028Z,42.38
2023-03-29T11:44:26.166Z,42.44
2023-03-29T11:46:33.584Z,42.68
2023-03-29T11:48:41.721Z,42.23
2023-03-29T11:50:51.054Z,41.25
2023-03-29T11:52:57.340Z,41.93
2023-03-29T11:55:04.426Z,41.46
2023-03-29T11:57:15.366Z,41.14
2023-03-29T11:59:24.618Z,43.36
2023-03-29T12:01:32.437Z,42.03
2023-03-29T12:03:43.071Z,42.91
2023-03-29T12:05:51.632Z,43.66
2023-03-29T12:08:01.448Z,43.89
2023-03-29T12:10:09.589Z,44.42
2023-03-29T12:12:17.693Z,44.62
2023-03-29T12:14:27.327Z,43.88
2023-03-29T12:16:34.324Z,43.63
2023-03-29T12:18:42.155Z,44.17
2023-03-29T12:20:52.307Z,45.18
2023-03-29T12:22:56.031Z,44.88
2023-03-29T12:25:00.035Z,44.49
2023-03-29T12:27:20.808Z,44.26
2023-03-29T12:29:37.944Z,43.31
2023-03-29T12:31:48.989Z,42.78
2023-03-29T12:34:30.876Z,43.06
2023-03-29T12:37:00.726Z,40.88
2023-03-29T12:39:25.584Z,40.14
2023-03-29T12:41:51.868Z,39.75
2023-03-29T12:44:34.044Z,38.63
2023-03-29T12:46:54.596Z,37.67
2023-03-29T12:49:05.758Z,36.46
2023-03-29T12:51:13.397Z,35.44
2023-03-29T12:53:23.226Z,35.04
2023-03-29T12:55:34.245Z,35.30
2023-03-29T12:57:41.829Z,33.87
2023-03-29T12:59:47.275Z,34.69
2023-03-29T13:01:59.808Z,35.05
2023-03-29T13:04:18.683Z,35.88
2023-03-29T13:06:31.209Z,36.29
2023-03-29T13:08:37.901Z,36.47
2023-03-29T13:10:43.187Z,36.97
2023-03-29T13:12:47.371Z,37.56
2023-03-29T13:14:53.284Z,39.44
2023-03-29T13:17:15.574Z,40.14
2023-03-29T13:19:32.835Z,40.23
2023-03-29T13:21:45.453Z,40.09
2023-03-29T13:23:58.956Z,41.16
2023-03-29T13:26:19.660Z,39.52
2023-03-29T13:28:31.086Z,39.64
2023-03-29T13:30:47.611Z,40.05
2023-03-29T13:33:05.519Z,41.28
2023-03-29T13:35:18.182Z,41.20
2023-03-29T13:37:30.802Z,41.58
2023-03-29T13:39:37.378Z,41.63
2023-03-29T13:41:48.759Z,41.51
2023-03-29T13:43:54.594Z,42.29
2023-03-29T13:46:19.982Z,44.72
2023-03-29T13:48:27.400Z,46.24
2023-03-29T13:50:39.596Z,50.73
2023-03-29T13:52:48.511Z,49.37
2023-03-29T13:54:57.446Z,51.33
2023-03-29T13:57:06.737Z,53.18
2023-03-29T13:59:16.480Z,56.64
2023-03-29T14:01:26.755Z,51.60
2023-03-29T14:03:33.424Z,55.47
2023-03-29T14:05:39.687Z,56.50
2023-03-29T14:07:47.429Z,53.30
2023-03-29T14:09:52.414Z,51.60
2023-03-29T14:11:55.240Z,52.34
2023-03-29T14:13:59.711Z,49.98
2023-03-29T14:16:05.169Z,49.53
2023-03-29T14:18:11.980Z,46.26
2023-03-29T14:20:16.013Z,48.11
2023-03-29T14:22:21.822Z,43.52
2023-03-29T14:24:28.044Z,41.75
2023-03-29T14:26:35.841Z,39.65
2023-03-29T14:28:46.002Z,37.94
2023-03-29T14:30:49.873Z,37.12
2023-03-29T14:32:53.231Z,37.21
2023-03-29T14:34:56.101Z,35.89
2023-03-29T14:36:59.865Z,35.60
2023-03-29T14:39:05.981Z,35.87
2023-03-29T14:41:09.941Z,34.92
2023-03-29T14:43:19.963Z,35.69
2023-03-29T14:45:24.306Z,34.78
2023-03-29T14:47:30.294Z,35.38
2023-03-29T14:49:33.316Z,34.59
2023-03-29T14:51:36.945Z,35.61
2023-03-29T14:53:41.669Z,35.27
2023-03-29T14:55:47.206Z,34.78
2023-03-29T14:57:50.662Z,34.46
2023-03-29T14:59:56.126Z,34.85
2023-03-29T15:01:59.011Z,35.63
2023-03-29T15:04:05.670Z,35.90
2023-03-29T15:06:08.808Z,35.78
2023-03-29T15:08:18.479Z,36.26
2023-03-29T15:10:21.624Z,36.34
2023-03-29T15:12:24.772Z,36.74
2023-03-29T15:14:33.616Z,35.73
2023-03-29T15:16:41.720Z,35.65
2023-03-29T15:18:46.460Z,35.42
2023-03-29T15:20:51.322Z,36.35
2023-03-29T15:22:56.977Z,36.14
2023-03-29T15:24:59.810Z,35.09
2023-03-29T15:27:05.479Z,35.49
2023-03-29T15:29:13.649Z,35.68
2023-03-29T15:31:19.875Z,34.82
2023-03-29T15:33:25.916Z,33.89
2023-03-29T15:35:28.837Z,33.91
2023-03-29T15:37:32.229Z,34.13
2023-03-29T15:39:35.012Z,35.91
2023-03-29T15:41:37.788Z,36.56
2023-03-29T15:43:41.196Z,36.71
2023-03-29T15:45:45.988Z,36.74
2023-03-29T15:47:50.266Z,36.63
2023-03-29T15:49:54.380Z,36.93
2023-03-29T15:51:57.149Z,37.34
2023-03-29T15:53:59.929Z,39.29
2023-03-29T15:56:07.147Z,38.92
2023-03-29T15:58:14.279Z,39.53
2023-03-29T16:00:19.128Z,39.56
2023-03-29T16:02:25.380Z,40.00
2023-03-29T16:04:28.325Z,41.55
2023-03-29T16:06:33.328Z,41.71
2023-03-29T16:08:36.184Z,41.79
2023-03-29T16:10:39.308Z,41.40
2023-03-29T16:12:42.023Z,40.94
2023-03-29T16:14:44.839Z,41.58
2023-03-29T16:16:47.731Z,40.92
2023-03-29T16:18:50.538Z,40.85
2023-03-29T16:20:53.289Z,41.78
2023-03-29T16:22:57.390Z,41.32
2023-03-29T16:25:00.152Z,42.28
2023-03-29T16:27:03.766Z,42.07
2023-03-29T16:29:06.508Z,42.65
2023-03-29T16:31:11.629Z,42.79
2023-03-29T16:33:14.520Z,42.92
2023-03-29T16:35:22.773Z,43.75
2023-03-29T16:37:25.617Z,43.75
2023-03-29T16:39:29.668Z,44.26
2023-03-29T16:41:33.297Z,44.33
2023-03-29T16:43:38.700Z,44.57
2023-03-29T16:45:41.720Z,44.82
2023-03-29T16:47:45.236Z,45.51
2023-03-29T16:49:48.641Z,46.41
2023-03-29T16:51:51.436Z,46.54
2023-03-29T16:53:54.281Z,46.28
2023-03-29T16:55:58.598Z,46.38
2023-03-29T16:58:01.538Z,46.58
2023-03-29T17:00:06.818Z,47.28
2023-03-29T17:02:10.703Z,47.48
2023-03-29T17:04:13.521Z,47.73
2023-03-29T17:06:16.276Z,47.98
2023-03-29T17:08:19.130Z,48.17
2023-03-29T17:10:21.916Z,48.80
2023-03-29T17:12:26.238Z,49.18
2023-03-29T17:14:28.981Z,49.31
2023-03-29T17:16:32.264Z,49.26
2023-03-29T17:18:35.054Z,49.11
2023-03-29T17:20:39.816Z,49.31
2023-03-29T17:22:43.098Z,49.71
2023-03-29T17:24:45.838Z,49.40
2023-03-29T17:26:48.560Z,49.83
2023-03-29T17:28:52.757Z,50.17
2023-03-29T17:30:55.655Z,50.85
2023-03-29T17:32:58.523Z,51.22
2023-03-29T17:35:01.263Z,51.90
2023-03-29T17:37:04.240Z,51.63
2023-03-29T17:39:06.974Z,51.71
2023-03-29T17:41:09.942Z,51.26
2023-03-29T17:43:12.758Z,50.96
2023-03-29T17:45:17.231Z,51.27
2023-03-29T17:47:19.990Z,51.95
2023-03-29T17:49:22.838Z,52.36
2023-03-29T17:51:26.175Z,52.77
2023-03-29T17:53:29.006Z,52.73
2023-03-29T17:55:31.742Z,53.28
2023-03-29T17:57:34.441Z,53.46
2023-03-29T17:59:37.918Z,51.97
2023-03-29T18:01:42.031Z,52.88
2023-03-29T18:03:45.047Z,53.50
2023-03-29T18:05:47.703Z,52.89
2023-03-29T18:07:50.695Z,52.56
2023-03-29T18:09:53.477Z,53.07
2023-03-29T18:11:56.616Z,53.14
2023-03-29T18:14:01.133Z,53.38
2023-03-29T18:16:04.352Z,53.18
2023-03-29T18:18:08.898Z,53.34
2023-03-29T18:20:12.804Z,54.19
2023-03-29T18:22:15.613Z,53.59
2023-03-29T18:24:18.372Z,53.36
2023-03-29T18:26:22.115Z,53.50
2023-03-29T18:28:25.050Z,54.04
2023-03-29T18:30:27.716Z,54.71
2023-03-29T18:32:30.504Z,55.00
2023-03-29T18:34:34.572Z,55.42
2023-03-29T18:36:37.305Z,55.53
2023-03-29T18:38:40.550Z,55.63
2023-03-29T18:40:43.574Z,55.79
2023-03-29T18:42:46.397Z,56.00
2023-03-29T18:44:49.203Z,55.65
2023-03-29T18:46:52.010Z,55.94
2023-03-29T18:48:54.807Z,55.96
2023-03-29T18:50:59.357Z,56.51
2023-03-29T18:53:02.172Z,56.37
2023-03-29T18:55:05.526Z,56.33
2023-03-29T18:57:08.417Z,56.27
2023-03-29T18:59:11.409Z,56.00
2023-03-29T19:01:14.606Z,55.99
2023-03-29T19:03:17.529Z,56.51
2023-03-29T19:05:20.336Z,56.68
2023-03-29T19:07:24.385Z,56.54
2023-03-29T19:09:28.086Z,56.84
2023-03-29T19:11:31.123Z,56.91
2023-03-29T19:13:33.911Z,56.86
2023-03-29T19:15:36.662Z,57.61
2023-03-29T19:17:39.554Z,57.64
2023-03-29T19:19:42.356Z,57.84
2023-03-29T19:21:46.871Z,57.85
2023-03-29T19:23:52.915Z,58.78
2023-03-29T19:25:57.604Z,57.89
2023-03-29T19:28:00.657Z,59.24
2023-03-29T19:30:03.553Z,59.22
2023-03-29T19:32:07.273Z,59.72
2023-03-29T19:34:11.056Z,59.84
2023-03-29T19:36:14.099Z,59.88
2023-03-29T19:38:16.957Z,60.28
2023-03-29T19:40:21.186Z,60.06
2023-03-29T19:42:24.292Z,60.51
2023-03-29T19:44:28.119Z,60.98
2023-03-29T19:46:30.888Z,60.90
2023-03-29T19:48:33.820Z,60.35
2023-03-29T19:50:40.499Z,60.20
2023-03-29T19:52:43.255Z,60.86
2023-03-29T19:54:46.011Z,60.38
2023-03-29T19:56:52.541Z,60.29
2023-03-29T19:58:55.650Z,61.05
2023-03-29T20:00:59.095Z,61.44
2023-03-29T20:03:02.225Z,61.08
2023-03-29T20:05:05.515Z,60.90
2023-03-29T20:07:08.238Z,60.90
2023-03-29T20:09:11.202Z,61.68
2023-03-29T20:11:15.602Z,62.10
2023-03-29T20:13:31.330Z,61.62
2023-03-29T20:15:40.741Z,62.18
2023-03-29T20:17:44.867Z,60.47
2023-03-29T20:19:47.621Z,61.01
2023-03-29T20:21:50.675Z,61.26
2023-03-29T20:23:53.452Z,61.70
2023-03-29T20:25:57.062Z,60.81
2023-03-29T20:28:00.476Z,60.77
2023-03-29T20:30:06.383Z,60.11
2023-03-29T20:32:09.240Z,60.70
2023-03-29T20:34:12.362Z,60.79
2023-03-29T20:36:18.526Z,61.32
2023-03-29T20:38:21.529Z,60.84
2023-03-29T20:40:24.720Z,61.25
2023-03-29T20:42:28.599Z,60.77
2023-03-29T20:44:33.599Z,61.47
2023-03-29T20:46:46.137Z,61.83
2023-03-29T20:48:53.921Z,62.97
2023-03-29T20:50:57.592Z,62.60
2023-03-29T20:53:03.539Z,62.32
2023-03-29T20:55:07.205Z,62.57
2023-03-29T20:57:11.620Z,61.99
2023-03-29T20:59:14.324Z,62.21
2023-03-29T21:01:17.132Z,61.41
2023-03-29T21:03:21.487Z,61.17
2023-03-29T21:05:24.396Z,62.44
2023-03-29T21:07:28.558Z,62.64
2023-03-29T21:09:34.307Z,63.54
2023-03-29T21:11:37.358Z,63.65
2023-03-29T21:13:40.795Z,63.64
2023-03-29T21:15:43.736Z,63.87
2023-03-29T21:17:47.434Z,65.55
2023-03-29T21:19:51.919Z,65.47
2023-03-29T21:21:54.964Z,65.78
2023-03-29T21:23:57.752Z,66.27
2023-03-29T21:26:00.623Z,67.03
2023-03-29T21:28:03.395Z,67.11
2023-03-29T21:30:07.898Z,66.90
2023-03-29T21:32:10.811Z,67.92
2023-03-29T21:34:13.565Z,67.58
2023-03-29T21:36:17.693Z,68.80
2023-03-29T21:38:20.480Z,69.65
2023-03-29T21:40:23.228Z,70.49
2023-03-29T21:42:26.063Z,70.42
2023-03-29T21:44:29.001Z,70.59
2023-03-29T21:46:31.786Z,71.27
2023-03-29T21:48:34.839Z,72.21
2023-03-29T21:50:37.576Z,72.94
2023-03-29T21:52:41.667Z,73.16
2023-03-29T21:54:44.428Z,72.72
2023-03-29T21:56:47.774Z,74.11
2023-03-29T21:58:50.688Z,74.17
2023-03-29T22:00:53.532Z,74.26
2023-03-29T22:02:57.008Z,75.75
2023-03-29T22:04:59.816Z,75.54
2023-03-29T22:07:02.774Z,76.98
2023-03-29T22:09:06.834Z,78.17
2023-03-29T22:11:11.095Z,79.22
2023-03-29T22:13:13.796Z,79.30
2023-03-29T22:15:17.097Z,80.12
2023-03-29T22:17:20.037Z,80.53
2023-03-29T22:19:23.092Z,81.26
2023-03-29T22:21:28.387Z,81.50
2023-03-29T22:23:31.762Z,81.87
2023-03-29T22:25:38.191Z,82.07
2023-03-29T22:27:40.952Z,82.38
2023-03-29T22:29:44.023Z,82.76
2023-03-29T22:31:46.864Z,82.72
2023-03-29T22:33:50.103Z,82.41
2023-03-29T22:35:52.993Z,82.97
2023-03-29T22:37:56.096Z,83.55
2023-03-29T22:39:58.896Z,82.97
2023-03-29T22:42:03.227Z,82.31
2023-03-29T22:44:06.390Z,82.57
2023-03-29T22:46:11.063Z,82.52
2023-03-29T22:48:14.064Z,82.74
2023-03-29T22:50:17.251Z,83.17
2023-03-29T22:52:20.023Z,82.96
2023-03-29T22:54:22.765Z,83.66
2023-03-29T22:56:25.474Z,83.49
2023-03-29T22:58:30.030Z,83.89
2023-03-29T23:00:32.947Z,83.68
2023-03-29T23:02:35.768Z,83.61
2023-03-29T23:04:39.004Z,83.91
2023-03-29T23:06:41.966Z,83.25
2023-03-29T23:08:44.790Z,83.85
2023-03-29T23:10:48.350Z,82.92
2023-03-29T23:12:51.247Z,83.38
2023-03-29T23:14:55.824Z,82.98
2023-03-29T23:16:59.012Z,83.39
2023-03-29T23:19:02.671Z,84.48
2023-03-29T23:21:06.414Z,85.24
2023-03-29T23:23:10.492Z,87.27
2023-03-29T23:25:13.292Z,88.89
2023-03-29T23:27:16.052Z,87.61
2023-03-29T23:29:18.819Z,85.77
2023-03-29T23:31:23.853Z,86.08
2023-03-29T23:33:27.226Z,85.18
2023-03-29T23:35:30.063Z,85.24
2023-03-29T23:37:32.856Z,85.45
2023-03-29T23:39:35.664Z,88.20
2023-03-29T23:41:40.090Z,94.78
2023-03-29T23:43:44.132Z,100.00
2023-03-29T23:45:47.128Z,100.00
2023-03-29T23:47:51.838Z,100.00
2023-03-29T23:49:54.596Z,100.00
2023-03-29T23:52:00.044Z,100.00
2023-03-29T23:54:03.665Z,100.00
2023-03-29T23:56:07.593Z,100.00
2023-03-29T23:58:10.438Z,100.00
